createdAt,value
2023-03-23T15:58:26.193Z,95050.53
2023-03-23T16:00:59.206Z,95047.47
2023-03-23T16:03:35.929Z,95045.09
2023-03-23T16:06:06.082Z,95042.59
2023-03-23T16:08:40.866Z,95048.28
2023-03-23T16:11:13.413Z,95043.84
2023-03-23T16:13:43.691Z,95044.44
2023-03-23T16:16:19.990Z,95052.00
2023-03-23T16:18:49.875Z,95048.50
2023-03-23T16:21:19.496Z,95047.19
2023-03-23T16:23:49.290Z,95045.41
2023-03-23T16:26:19.566Z,95053.44
2023-03-23T16:28:49.586Z,95051.94
2023-03-23T16:31:20.755Z,95049.13
2023-03-23T16:33:50.396Z,95055.25
2023-03-23T16:36:20.342Z,95051.41
2023-03-23T16:38:52.462Z,95050.09
2023-03-23T16:41:23.210Z,95053.00
2023-03-23T16:43:52.890Z,95061.72
2023-03-23T16:46:24.080Z,95052.09
2023-03-23T16:48:53.726Z,95061.47
2023-03-23T16:51:23.477Z,95063.97
2023-03-23T16:53:53.270Z,95059.78
2023-03-23T16:56:22.918Z,95060.69
2023-03-23T16:58:52.501Z,95066.50
2023-03-23T17:01:23.526Z,95063.28
2023-03-23T17:03:54.393Z,95067.13
2023-03-23T17:06:24.056Z,95062.50
2023-03-23T17:08:53.620Z,95072.09
2023-03-23T17:11:23.292Z,95068.19
2023-03-23T17:13:52.898Z,95067.28
2023-03-23T17:16:23.961Z,95072.06
2023-03-23T17:18:53.634Z,95065.94
2023-03-23T17:21:25.821Z,95065.94
2023-03-23T17:23:55.583Z,95074.34
2023-03-23T17:26:25.376Z,95065.94
2023-03-23T17:28:55.025Z,95073.91
2023-03-23T17:31:26.398Z,95072.09
2023-03-23T17:33:57.557Z,95064.50
2023-03-23T17:36:27.179Z,95065.53
2023-03-23T17:38:56.948Z,95068.03
2023-03-23T17:41:26.611Z,95068.22
2023-03-23T17:43:56.214Z,95071.13
2023-03-23T17:46:27.387Z,95070.94
2023-03-23T17:48:57.060Z,95074.53
2023-03-23T17:51:26.688Z,95079.22
2023-03-23T17:53:56.270Z,95073.94
2023-03-23T17:56:25.880Z,95087.25
2023-03-23T17:58:55.780Z,95077.66
2023-03-23T18:01:26.963Z,95088.56
2023-03-23T18:03:56.733Z,95088.63
2023-03-23T18:06:26.644Z,95090.66
2023-03-23T18:08:56.669Z,95094.53
2023-03-23T18:11:26.185Z,95089.22
2023-03-23T18:13:56.765Z,95089.81
2023-03-23T18:16:28.139Z,95096.16
2023-03-23T18:18:57.760Z,95098.16
2023-03-23T18:21:27.440Z,95106.88
2023-03-23T18:23:59.602Z,95099.56
2023-03-23T18:26:30.996Z,95101.78
2023-03-23T18:29:00.531Z,95095.44
2023-03-23T18:31:31.757Z,95097.97
2023-03-23T18:34:01.615Z,95096.28
2023-03-23T18:36:31.404Z,95097.06
2023-03-23T18:39:01.012Z,95098.25
2023-03-23T18:41:30.764Z,95091.84
2023-03-23T18:44:00.387Z,95101.66
2023-03-23T18:46:31.751Z,95094.53
2023-03-23T18:49:01.597Z,95097.84
2023-03-23T18:51:31.205Z,95103.75
2023-03-23T18:54:00.754Z,95104.84
2023-03-23T18:56:30.451Z,95105.16
2023-03-23T18:59:00.050Z,95112.25
2023-03-23T19:01:31.044Z,95109.66
2023-03-23T19:04:00.583Z,95110.78
2023-03-23T19:06:36.497Z,95112.19
2023-03-23T19:09:06.241Z,95103.28
2023-03-23T19:11:35.834Z,95113.66
2023-03-23T19:14:05.776Z,95118.56
2023-03-23T19:16:37.190Z,95118.63
2023-03-23T19:19:08.992Z,95109.72
2023-03-23T19:21:40.707Z,95111.13
2023-03-23T19:24:11.187Z,95115.78
2023-03-23T19:26:43.574Z,95107.88
2023-03-23T19:31:50.704Z,95110.22
2023-03-23T19:34:21.834Z,95115.38
2023-03-23T19:36:56.395Z,95115.16
2023-03-23T19:39:33.078Z,95116.06
2023-03-23T19:42:04.296Z,95107.47
2023-03-23T19:44:34.999Z,95114.69
2023-03-23T19:47:07.216Z,95112.06
2023-03-23T19:49:38.687Z,95118.25
2023-03-23T19:52:12.514Z,95115.63
2023-03-23T19:54:43.205Z,95111.59
2023-03-23T19:57:12.906Z,95114.88
2023-03-23T19:59:42.708Z,95112.78
2023-03-23T20:02:14.986Z,95115.75
2023-03-23T20:04:45.537Z,95112.84
2023-03-23T20:07:15.774Z,95113.44
2023-03-23T20:09:45.619Z,95112.41
2023-03-23T20:12:16.166Z,95112.13
2023-03-23T20:14:46.381Z,95118.84
2023-03-23T20:17:17.397Z,95108.34
2023-03-23T20:19:47.072Z,95107.03
2023-03-23T20:22:17.655Z,95105.13
2023-03-23T20:24:48.287Z,95104.31
2023-03-23T20:27:19.056Z,95114.53
2023-03-23T20:29:48.696Z,95114.31
2023-03-23T20:32:19.702Z,95101.41
2023-03-23T20:34:49.574Z,95108.47
2023-03-23T20:37:20.866Z,95112.25
2023-03-23T20:39:52.289Z,95112.53
2023-03-23T20:42:22.239Z,95115.75
2023-03-23T20:44:52.328Z,95108.22
2023-03-23T20:47:23.396Z,95105.81
2023-03-23T20:49:54.062Z,95101.53
2023-03-23T20:52:25.972Z,95099.34
2023-03-23T20:54:56.797Z,95096.34
2023-03-23T20:57:26.292Z,95097.38
2023-03-23T20:59:56.565Z,95097.09
2023-03-23T21:02:29.930Z,95102.50
2023-03-23T21:05:04.209Z,95104.91
2023-03-23T21:07:34.213Z,95110.81
2023-03-23T21:10:05.214Z,95104.91
2023-03-23T21:12:34.801Z,95097.25
2023-03-23T21:15:06.376Z,95094.34
2023-03-23T21:17:37.389Z,95091.69
2023-03-23T21:20:11.056Z,95090.09
2023-03-23T21:22:40.971Z,95093.38
2023-03-23T21:25:11.060Z,95083.44
2023-03-23T21:27:40.739Z,95071.34
2023-03-23T21:30:11.469Z,95078.06
2023-03-23T21:32:42.441Z,95073.47
2023-03-23T21:35:12.201Z,95083.97
2023-03-23T21:37:42.127Z,95073.75
2023-03-23T21:40:18.720Z,95072.94
2023-03-23T21:42:51.000Z,95074.84
2023-03-23T21:45:21.870Z,95066.22
2023-03-23T21:47:56.802Z,95054.63
2023-03-23T21:50:26.253Z,95054.94
2023-03-23T21:52:55.704Z,95041.72
2023-03-23T21:55:25.268Z,95042.25
2023-03-23T21:57:54.743Z,95039.53
2023-03-23T22:00:24.747Z,95043.34
2023-03-23T22:02:56.003Z,95043.34
2023-03-23T22:05:25.604Z,95042.53
2023-03-23T22:07:55.325Z,95035.84
2023-03-23T22:10:25.213Z,95034.72
2023-03-23T22:12:55.677Z,95029.94
2023-03-23T22:15:27.894Z,95025.66
2023-03-23T22:17:59.059Z,95024.03
2023-03-23T22:20:29.411Z,95015.44
2023-03-23T22:22:59.023Z,95016.53
2023-03-23T22:25:28.668Z,95016.81
2023-03-23T22:27:58.319Z,95019.56
2023-03-23T22:30:29.703Z,95012.06
2023-03-23T22:33:01.805Z,95009.94
2023-03-23T22:35:33.638Z,95005.94
2023-03-23T22:38:03.423Z,94999.75
2023-03-23T22:40:33.437Z,94993.56
2023-03-23T22:43:03.534Z,94992.47
2023-03-23T22:45:33.209Z,94980.34
2023-03-23T22:48:08.245Z,94991.44
2023-03-23T22:50:45.210Z,94990.91
2023-03-23T22:53:20.615Z,94985.53
2023-03-23T22:55:58.026Z,94991.50
2023-03-23T22:58:39.641Z,94975.59
2023-03-23T23:01:19.472Z,94972.16
2023-03-23T23:03:52.078Z,94973.78
2023-03-23T23:06:28.080Z,94968.44
2023-03-23T23:08:58.776Z,94968.97
2023-03-23T23:11:30.222Z,94962.25
2023-03-23T23:14:02.175Z,94953.66
2023-03-23T23:16:34.024Z,94958.53
2023-03-23T23:19:06.760Z,94942.38
2023-03-23T23:21:38.048Z,94942.06
2023-03-23T23:24:14.495Z,94935.38
2023-03-23T23:26:52.028Z,94937.25
2023-03-23T23:29:22.493Z,94936.97
2023-03-23T23:31:52.201Z,94928.38
2023-03-23T23:34:23.444Z,94936.16
2023-03-23T23:36:53.573Z,94943.97
2023-03-23T23:39:32.085Z,94942.88
2023-03-23T23:42:02.327Z,94934.00
2023-03-23T23:44:32.144Z,94932.91
2023-03-23T23:47:02.376Z,94926.94
2023-03-23T23:49:34.276Z,94932.31
2023-03-23T23:52:04.277Z,94919.34
2023-03-23T23:54:37.559Z,94911.50
2023-03-23T23:57:07.446Z,94906.63
2023-03-23T23:59:37.363Z,94903.63
